createdAt,value
2022-11-28T00:01:27.324Z,10.20
2022-11-28T00:03:54.359Z,10.20
2022-11-28T00:06:21.860Z,10.20
2022-11-28T00:08:48.734Z,10.20
2022-11-28T00:11:17.174Z,10.20
2022-11-28T00:13:45.444Z,10.20
2022-11-28T00:16:23.882Z,10.30
2022-11-28T00:18:54.041Z,10.30
2022-11-28T00:21:21.677Z,10.30
2022-11-28T00:23:48.947Z,10.20
2022-11-28T00:26:35.359Z,10.20
2022-11-28T00:29:03.690Z,10.20
2022-11-28T00:31:35.546Z,10.30
2022-11-28T00:34:03.129Z,10.20
2022-11-28T00:36:31.110Z,10.20
2022-11-28T00:38:57.866Z,10.20
2022-11-28T00:41:29.109Z,10.70
2022-11-28T00:43:56.386Z,10.20
2022-11-28T00:46:23.830Z,10.20
2022-11-28T00:48:51.407Z,10.60
2022-11-28T00:51:27.969Z,10.20
2022-11-28T00:53:58.451Z,10.10
2022-11-28T00:56:30.976Z,10.30
2022-11-28T00:58:58.879Z,10.10
2022-11-28T01:01:38.754Z,10.70
2022-11-28T01:04:09.362Z,10.20
2022-11-28T01:06:46.887Z,10.20
2022-11-28T01:09:21.097Z,10.20
2022-11-28T01:11:50.228Z,10.20
2022-11-28T01:14:21.541Z,10.20
2022-11-28T01:16:48.902Z,10.20
2022-11-28T01:19:16.156Z,10.30
2022-11-28T01:21:43.084Z,10.30
2022-11-28T01:24:10.670Z,10.30
2022-11-28T01:26:40.174Z,10.30
2022-11-28T01:29:07.858Z,10.30
2022-11-28T01:31:35.475Z,10.40
2022-11-28T01:34:02.343Z,10.40
2022-11-28T01:36:29.631Z,10.40
2022-11-28T01:38:56.465Z,10.40
2022-11-28T01:41:26.750Z,10.40
2022-11-28T01:44:27.408Z,10.40
2022-11-28T01:46:54.236Z,10.50
2022-11-28T01:49:31.533Z,10.60
2022-11-28T01:52:04.830Z,10.80
2022-11-28T01:54:33.670Z,10.60
2022-11-28T01:57:07.091Z,10.60
2022-11-28T01:59:48.970Z,11.00
2022-11-28T02:02:26.930Z,10.60
2022-11-28T02:04:54.112Z,10.70
2022-11-28T02:07:21.580Z,10.70
2022-11-28T02:09:48.365Z,10.70
2022-11-28T02:12:37.782Z,10.70
2022-11-28T02:15:39.666Z,10.70
2022-11-28T02:18:36.282Z,10.80
2022-11-28T02:21:24.897Z,10.80
2022-11-28T02:24:19.729Z,10.70
2022-11-28T02:27:35.237Z,10.70
2022-11-28T02:30:14.599Z,10.70
2022-11-28T02:32:43.963Z,10.70
2022-11-28T02:35:26.550Z,10.70
2022-11-28T02:38:41.968Z,10.70
2022-11-28T02:41:26.201Z,10.70
2022-11-28T02:44:12.844Z,10.70
2022-11-28T02:47:07.082Z,10.70
2022-11-28T02:49:54.795Z,10.70
2022-11-28T02:52:32.854Z,10.70
2022-11-28T02:55:00.761Z,10.70
2022-11-28T02:57:39.968Z,10.70
2022-11-28T03:00:34.625Z,10.70
2022-11-28T03:03:39.293Z,10.70
2022-11-28T03:06:20.962Z,10.70
2022-11-28T03:09:05.684Z,10.70
2022-11-28T03:11:38.049Z,10.70
2022-11-28T03:14:12.321Z,10.70
2022-11-28T03:16:39.151Z,10.70
2022-11-28T03:19:44.249Z,10.70
2022-11-28T03:22:37.161Z,10.70
2022-11-28T03:25:22.377Z,10.70
2022-11-28T03:28:08.201Z,10.70
2022-11-28T03:30:50.783Z,10.70
2022-11-28T03:33:21.214Z,10.60
2022-11-28T03:35:57.824Z,10.70
2022-11-28T03:38:43.339Z,10.80
2022-11-28T03:41:25.146Z,10.70
2022-11-28T03:43:58.302Z,10.80
2022-11-28T03:46:38.601Z,10.80
2022-11-28T03:49:09.546Z,10.80
2022-11-28T03:51:52.117Z,10.80
2022-11-28T03:54:48.994Z,10.80
2022-11-28T03:57:41.478Z,10.70
2022-11-28T04:00:12.966Z,10.80
2022-11-28T04:03:02.674Z,10.70
2022-11-28T04:05:49.432Z,10.80
2022-11-28T04:08:24.225Z,10.80
2022-11-28T04:11:15.009Z,10.80
2022-11-28T04:14:00.841Z,10.80
2022-11-28T04:16:41.840Z,10.80
2022-11-28T04:19:24.561Z,10.80
2022-11-28T04:22:00.300Z,10.80
2022-11-28T04:24:48.360Z,10.90
2022-11-28T04:27:24.153Z,10.80
2022-11-28T04:29:58.516Z,10.80
2022-11-28T04:32:29.220Z,10.80
2022-11-28T04:35:06.418Z,10.80
2022-11-28T04:37:38.141Z,10.80
2022-11-28T04:40:11.202Z,10.80
2022-11-28T04:42:43.461Z,10.80
2022-11-28T04:45:18.070Z,10.80
2022-11-28T04:47:45.503Z,10.80
2022-11-28T04:50:13.578Z,10.70
2022-11-28T04:52:59.204Z,10.70
2022-11-28T04:55:46.609Z,10.70
2022-11-28T04:58:40.386Z,10.70
2022-11-28T05:01:14.472Z,10.70
2022-11-28T05:03:42.897Z,10.70
2022-11-28T05:06:10.545Z,10.70
2022-11-28T05:08:37.287Z,10.70
2022-11-28T05:11:04.217Z,10.60
2022-11-28T05:13:30.905Z,10.70
2022-11-28T05:16:01.397Z,10.60
2022-11-28T05:18:28.200Z,10.60
2022-11-28T05:20:55.180Z,10.60
2022-11-28T05:23:21.909Z,10.60
2022-11-28T05:25:48.620Z,10.60
2022-11-28T05:28:15.358Z,10.50
2022-11-28T05:30:42.106Z,10.50
2022-11-28T05:33:08.872Z,10.50
2022-11-28T05:35:39.429Z,10.40
2022-11-28T05:38:10.650Z,10.40
2022-11-28T05:40:44.255Z,10.40
2022-11-28T05:43:12.036Z,10.30
2022-11-28T05:45:45.986Z,10.30
2022-11-28T05:48:12.852Z,10.30
2022-11-28T05:50:41.628Z,10.30
2022-11-28T05:53:10.264Z,10.30
2022-11-28T05:55:40.519Z,10.30
2022-11-28T05:58:07.257Z,10.30
2022-11-28T06:00:34.044Z,10.30
2022-11-28T06:03:01.759Z,10.30
2022-11-28T06:05:42.375Z,10.30
2022-11-28T06:08:12.907Z,10.30
2022-11-28T06:10:41.376Z,10.30
2022-11-28T06:13:08.953Z,10.40
2022-11-28T06:15:38.148Z,10.30
2022-11-28T06:18:06.034Z,10.30
2022-11-28T06:20:35.697Z,10.30
2022-11-28T06:23:05.543Z,10.30
2022-11-28T06:25:32.355Z,10.30
2022-11-28T06:27:59.057Z,10.30
2022-11-28T06:30:25.925Z,10.30
2022-11-28T06:32:52.625Z,10.30
2022-11-28T06:35:19.486Z,10.40
2022-11-28T06:37:46.182Z,10.40
2022-11-28T06:40:13.472Z,10.60
2022-11-28T06:42:40.190Z,10.40
2022-11-28T06:45:08.197Z,10.40
2022-11-28T06:47:35.102Z,10.40
2022-11-28T06:50:01.887Z,10.40
2022-11-28T06:52:28.607Z,10.40
2022-11-28T06:54:55.310Z,10.40
2022-11-28T06:57:23.217Z,10.40
2022-11-28T06:59:50.653Z,10.40
2022-11-28T07:02:17.553Z,10.40
2022-11-28T07:04:44.702Z,10.40
2022-11-28T07:07:16.145Z,10.40
2022-11-28T07:09:43.870Z,10.40
2022-11-28T07:12:10.966Z,10.40
2022-11-28T07:14:38.221Z,10.40
2022-11-28T07:17:05.233Z,10.40
2022-11-28T07:19:32.023Z,10.50
2022-11-28T07:21:58.818Z,10.50
2022-11-28T07:24:25.850Z,10.50
2022-11-28T07:27:41.414Z,10.50
2022-11-28T07:30:09.896Z,10.50
2022-11-28T07:32:40.639Z,10.50
2022-11-28T07:35:08.925Z,10.50
2022-11-28T07:37:36.146Z,10.50
2022-11-28T07:40:03.777Z,10.60
2022-11-28T07:42:30.526Z,10.60
2022-11-28T07:45:00.306Z,10.60
2022-11-28T07:47:27.069Z,11.10
2022-11-28T07:49:54.246Z,10.60
2022-11-28T07:52:21.068Z,10.60
2022-11-28T07:54:50.041Z,10.60
2022-11-28T07:57:16.798Z,11.10
2022-11-28T07:59:44.308Z,10.70
2022-11-28T08:02:12.638Z,10.70
2022-11-28T08:04:54.984Z,10.70
2022-11-28T08:07:22.971Z,10.80
2022-11-28T08:09:53.314Z,10.90
2022-11-28T08:15:06.274Z,10.90
2022-11-28T08:17:34.975Z,10.90
2022-11-28T08:20:02.250Z,10.90
2022-11-28T08:22:29.032Z,10.90
2022-11-28T08:24:55.927Z,11.10
2022-11-28T08:27:22.656Z,11.30
2022-11-28T08:29:53.360Z,11.00
2022-11-28T08:32:20.560Z,11.00
2022-11-28T08:34:47.476Z,11.00
2022-11-28T08:37:14.257Z,11.00
2022-11-28T08:39:41.219Z,11.10
2022-11-28T08:42:08.177Z,11.10
2022-11-28T08:44:35.092Z,11.10
2022-11-28T08:47:01.791Z,11.10
2022-11-28T08:49:28.667Z,11.10
2022-11-28T08:51:55.410Z,11.10
2022-11-28T08:54:22.215Z,11.10
2022-11-28T08:56:48.971Z,11.10
2022-11-28T08:59:15.909Z,11.10
2022-11-28T09:01:43.032Z,11.10
2022-11-28T09:04:09.965Z,11.10
2022-11-28T09:06:40.358Z,11.10
2022-11-28T09:09:09.023Z,11.10
2022-11-28T09:11:35.976Z,11.10
2022-11-28T09:14:02.736Z,11.10
2022-11-28T09:16:29.604Z,11.10
2022-11-28T09:18:58.947Z,11.10
2022-11-28T09:21:26.556Z,11.10
2022-11-28T09:23:55.990Z,11.10
2022-11-28T09:26:25.194Z,11.10
2022-11-28T09:28:53.250Z,11.10
2022-11-28T09:31:25.853Z,11.10
2022-11-28T09:34:02.593Z,11.60
2022-11-28T09:36:30.427Z,11.20
2022-11-28T09:39:01.349Z,11.40
2022-11-28T09:42:39.045Z,11.80
2022-11-28T09:45:24.518Z,11.20
2022-11-28T09:48:45.649Z,11.30
2022-11-28T09:51:32.163Z,11.30
2022-11-28T09:54:17.444Z,11.50
2022-11-28T09:56:49.025Z,11.90
2022-11-28T09:59:25.965Z,11.30
2022-11-28T10:02:31.941Z,11.40
2022-11-28T10:05:21.022Z,11.40
2022-11-28T10:08:15.945Z,11.40
2022-11-28T10:11:06.146Z,11.40
2022-11-28T10:14:07.845Z,11.50
2022-11-28T10:17:06.253Z,11.50
2022-11-28T10:19:56.204Z,11.60
2022-11-28T10:22:51.504Z,11.60
2022-11-28T10:25:53.597Z,11.70
2022-11-28T10:28:28.456Z,11.70
2022-11-28T10:31:19.112Z,11.80
2022-11-28T10:34:15.276Z,12.20
2022-11-28T10:37:07.979Z,12.10
2022-11-28T10:39:44.243Z,11.90
2022-11-28T10:42:24.157Z,11.90
2022-11-28T10:45:09.395Z,12.20
2022-11-28T10:47:50.734Z,12.00
2022-11-28T10:50:46.421Z,12.00
2022-11-28T10:53:41.579Z,12.20
2022-11-28T10:56:40.244Z,12.10
2022-11-28T10:59:50.119Z,12.20
2022-11-28T11:02:27.831Z,12.20
2022-11-28T11:04:54.725Z,12.20
2022-11-28T11:07:30.436Z,12.30
2022-11-28T11:10:14.135Z,12.30
2022-11-28T11:12:41.346Z,12.20
2022-11-28T11:16:34.669Z,12.20
2022-11-28T11:19:56.537Z,12.20
2022-11-28T11:22:38.273Z,12.20
2022-11-28T11:25:12.816Z,12.20
2022-11-28T11:27:52.212Z,12.20
2022-11-28T11:30:33.380Z,12.20
2022-11-28T11:33:04.451Z,12.20
2022-11-28T11:35:37.027Z,12.20
2022-11-28T11:38:20.587Z,12.20
2022-11-28T11:40:50.018Z,12.20
2022-11-28T11:43:35.763Z,12.20
2022-11-28T11:46:05.409Z,12.20
2022-11-28T11:48:41.837Z,12.20
2022-11-28T11:51:23.577Z,12.20
2022-11-28T11:54:13.194Z,12.20
2022-11-28T11:56:45.977Z,12.20
2022-11-28T11:59:29.744Z,12.20
2022-11-28T12:02:22.958Z,12.20
2022-11-28T12:04:59.865Z,12.20
2022-11-28T12:07:37.086Z,12.20
2022-11-28T12:10:09.875Z,12.20
2022-11-28T12:12:38.948Z,12.20
2022-11-28T12:15:18.135Z,12.20
2022-11-28T12:18:24.976Z,12.20
2022-11-28T12:21:40.455Z,12.20
2022-11-28T12:24:15.635Z,12.30
2022-11-28T12:26:49.180Z,12.30
2022-11-28T12:29:54.784Z,12.30
2022-11-28T12:32:58.486Z,12.30
2022-11-28T12:35:43.301Z,12.30
2022-11-28T12:38:36.223Z,12.30
2022-11-28T12:41:42.374Z,12.30
2022-11-28T12:44:51.537Z,12.40
2022-11-28T12:47:54.021Z,12.40
2022-11-28T12:50:40.179Z,12.40
2022-11-28T12:53:51.706Z,12.40
2022-11-28T12:57:15.898Z,12.50
2022-11-28T12:59:59.999Z,12.50
2022-11-28T13:02:52.154Z,12.50
2022-11-28T13:05:46.148Z,12.50
2022-11-28T13:08:24.474Z,12.50
2022-11-28T13:11:54.155Z,12.60
2022-11-28T13:14:52.749Z,12.60
2022-11-28T13:17:43.888Z,12.60
2022-11-28T13:21:14.136Z,12.70
2022-11-28T13:24:07.346Z,12.70
2022-11-28T13:27:00.257Z,12.70
2022-11-28T13:30:19.316Z,12.80
2022-11-28T13:33:25.048Z,12.80
2022-11-28T13:35:53.156Z,12.80
2022-11-28T13:39:00.254Z,12.80
2022-11-28T13:42:36.149Z,12.80
2022-11-28T13:45:02.937Z,12.80
2022-11-28T13:47:36.830Z,12.90
2022-11-28T13:50:22.825Z,12.90
2022-11-28T13:53:20.793Z,13.00
2022-11-28T13:55:51.726Z,12.90
2022-11-28T13:58:40.007Z,12.90
2022-11-28T14:01:11.735Z,12.90
2022-11-28T14:04:17.869Z,13.00
2022-11-28T14:06:54.485Z,12.90
2022-11-28T14:10:14.207Z,12.90
2022-11-28T14:13:22.722Z,12.90
2022-11-28T14:16:03.518Z,12.90
2022-11-28T14:19:05.805Z,12.90
2022-11-28T14:22:18.051Z,12.90
2022-11-28T14:25:15.525Z,12.90
2022-11-28T14:27:54.403Z,12.90
2022-11-28T14:30:37.003Z,12.90
2022-11-28T14:33:26.729Z,12.80
2022-11-28T14:35:53.393Z,12.90
2022-11-28T14:38:33.489Z,12.80
2022-11-28T14:41:04.146Z,12.80
2022-11-28T14:43:38.124Z,12.80
2022-11-28T14:46:32.645Z,12.80
2022-11-28T14:48:59.697Z,12.70
2022-11-28T14:52:00.056Z,12.70
2022-11-28T14:54:46.035Z,12.70
2022-11-28T14:57:37.510Z,12.80
2022-11-28T15:00:13.120Z,12.60
2022-11-28T15:03:33.011Z,12.60
2022-11-28T15:06:24.463Z,12.60
2022-11-28T15:09:07.063Z,12.50
2022-11-28T15:11:58.864Z,12.50
2022-11-28T15:14:28.816Z,12.50
2022-11-28T15:17:02.681Z,12.40
2022-11-28T15:19:46.205Z,12.40
2022-11-28T15:22:38.141Z,12.80
2022-11-28T15:25:40.034Z,12.30
2022-11-28T15:28:19.187Z,12.20
2022-11-28T15:30:50.113Z,12.10
2022-11-28T15:33:17.519Z,12.10
2022-11-28T15:36:26.422Z,12.30
2022-11-28T15:38:54.609Z,12.00
2022-11-28T15:41:26.995Z,12.00
2022-11-28T15:43:56.639Z,11.90
2022-11-28T15:46:33.705Z,11.80
2022-11-28T15:49:05.254Z,11.80
2022-11-28T15:52:02.340Z,11.80
2022-11-28T15:54:43.759Z,11.40
2022-11-28T15:57:20.591Z,11.70
2022-11-28T15:59:47.417Z,11.60
2022-11-28T16:02:34.724Z,11.60
2022-11-28T16:05:08.820Z,11.50
2022-11-28T16:07:41.275Z,11.40
2022-11-28T16:10:26.412Z,11.40
2022-11-28T16:13:03.581Z,11.40
2022-11-28T16:15:32.171Z,11.30
2022-11-28T16:17:58.917Z,11.30
2022-11-28T16:20:34.955Z,11.00
2022-11-28T16:23:38.286Z,11.30
2022-11-28T16:26:11.184Z,11.20
2022-11-28T16:28:40.837Z,11.20
2022-11-28T16:31:23.680Z,11.70
2022-11-28T16:33:52.019Z,11.20
2022-11-28T16:36:44.345Z,11.10
2022-11-28T16:39:17.459Z,11.10
2022-11-28T16:41:54.749Z,11.10
2022-11-28T16:44:24.923Z,11.10
2022-11-28T16:46:56.080Z,11.10
2022-11-28T16:49:44.618Z,11.00
2022-11-28T16:52:26.159Z,11.00
2022-11-28T16:54:57.317Z,11.00
2022-11-28T16:57:28.876Z,10.90
2022-11-28T16:59:59.546Z,10.90
2022-11-28T17:02:27.032Z,10.90
2022-11-28T17:04:54.190Z,10.80
2022-11-28T17:07:24.572Z,10.80
2022-11-28T17:10:05.078Z,10.80
2022-11-28T17:12:38.944Z,11.10
2022-11-28T17:15:16.361Z,10.30
2022-11-28T17:17:43.318Z,10.70
2022-11-28T17:20:12.361Z,10.40
2022-11-28T17:22:46.749Z,10.60
2022-11-28T17:25:20.048Z,10.60
2022-11-28T17:27:48.309Z,10.60
2022-11-28T17:30:19.843Z,11.10
2022-11-28T17:32:48.305Z,10.60
2022-11-28T17:35:24.735Z,11.10
2022-11-28T17:37:51.562Z,10.50
2022-11-28T17:40:33.575Z,11.00
2022-11-28T17:43:01.412Z,10.70
2022-11-28T17:45:32.277Z,10.50
2022-11-28T17:47:59.253Z,11.00
2022-11-28T17:50:26.509Z,11.00
2022-11-28T17:52:53.460Z,10.90
2022-11-28T17:59:30.012Z,10.80
2022-11-28T18:14:01.778Z,10.40
2022-11-28T18:16:40.351Z,10.20
2022-11-28T18:19:07.450Z,10.60
2022-11-28T18:21:35.786Z,10.60
2022-11-28T18:41:22.233Z,10.10
2022-11-28T18:43:49.359Z,10.40
2022-11-28T18:46:21.159Z,10.40
2022-11-28T18:48:50.114Z,10.00
2022-11-28T18:51:29.221Z,10.30
2022-11-28T18:53:58.418Z,9.50
2022-11-28T18:56:27.210Z,10.50
2022-11-28T18:58:54.909Z,9.50
2022-11-28T19:02:07.271Z,10.30
2022-11-28T19:04:37.975Z,9.80
2022-11-28T19:07:05.233Z,10.10
2022-11-28T19:09:51.226Z,9.90
2022-11-28T19:12:23.194Z,10.30
2022-11-28T19:15:01.762Z,10.00
2022-11-28T19:17:45.723Z,10.10
2022-11-28T19:53:18.767Z,9.60
2022-11-28T19:55:46.065Z,9.80
2022-11-28T19:58:13.866Z,9.50
2022-11-28T20:00:41.126Z,10.10
2022-11-28T20:03:08.233Z,9.90
2022-11-28T20:05:39.323Z,9.50
2022-11-28T20:08:07.054Z,8.80
2022-11-28T20:10:38.952Z,9.80
2022-11-28T20:13:06.747Z,9.50
2022-11-28T20:15:37.172Z,9.50
2022-11-28T20:18:04.317Z,9.50
2022-11-28T20:20:33.346Z,9.50
2022-11-28T20:23:01.520Z,9.60
2022-11-28T20:25:28.852Z,10.00
2022-11-28T20:27:55.980Z,10.00
2022-11-28T20:30:22.975Z,9.60
2022-11-28T20:32:49.949Z,9.50
2022-11-28T20:35:18.218Z,9.60
2022-11-28T20:37:45.333Z,9.60
2022-11-28T20:40:15.369Z,9.60
2022-11-28T20:42:42.328Z,9.60
2022-11-28T20:45:10.404Z,9.90
2022-11-28T20:50:46.622Z,9.60
2022-11-28T20:53:14.039Z,9.60
2022-11-28T20:55:41.802Z,9.50
2022-11-28T20:58:10.790Z,9.60
2022-11-28T21:01:08.296Z,9.60
2022-11-28T21:03:37.067Z,9.60
2022-11-28T21:06:06.697Z,9.60
2022-11-28T21:08:33.839Z,9.10
2022-11-28T21:11:09.364Z,10.30
2022-11-28T21:13:36.518Z,9.70
2022-11-28T21:16:10.964Z,10.20
2022-11-28T21:18:40.097Z,9.70
2022-11-28T21:21:18.021Z,9.70
2022-11-28T21:23:45.889Z,9.70
2022-11-28T21:26:30.009Z,10.30
2022-11-28T21:29:02.580Z,9.70
2022-11-28T21:31:35.972Z,10.60
2022-11-28T21:34:03.294Z,9.70
2022-11-28T21:36:31.608Z,10.50
2022-11-28T21:39:01.181Z,10.40
2022-11-28T21:41:32.872Z,10.40
2022-11-28T21:44:00.774Z,9.80
2022-11-28T21:46:28.566Z,9.80
2022-11-28T21:48:57.728Z,10.30
2022-11-28T21:51:25.860Z,10.60
2022-11-28T21:53:52.663Z,10.60
2022-11-28T21:56:19.520Z,10.70
2022-11-28T21:58:46.436Z,9.50
2022-11-28T22:01:14.959Z,10.70
2022-11-28T22:03:43.640Z,9.70
2022-11-28T22:06:22.245Z,9.90
2022-11-28T22:08:50.012Z,9.90
2022-11-28T22:11:18.601Z,10.10
2022-11-28T22:13:46.639Z,10.40
2022-11-28T22:16:24.347Z,9.90
2022-11-28T22:18:54.830Z,10.00
2022-11-28T22:21:51.248Z,10.40
2022-11-28T22:24:09.652Z,10.00
2022-11-28T22:26:37.617Z,10.40
2022-11-28T22:29:07.028Z,10.00
2022-11-28T22:31:36.757Z,10.20
2022-11-28T22:34:06.174Z,10.00
2022-11-28T22:36:34.424Z,10.10
2022-11-28T22:39:02.989Z,10.70
2022-11-28T22:41:30.073Z,10.90
2022-11-28T22:44:00.722Z,10.10
2022-11-28T22:46:29.263Z,10.10
2022-11-28T22:48:56.666Z,10.60
2022-11-28T22:51:26.537Z,9.80
2022-11-28T22:53:59.378Z,10.80
2022-11-28T22:56:28.181Z,9.90
2022-11-28T22:58:55.461Z,10.20
2022-11-28T23:01:27.171Z,10.50
2022-11-28T23:03:55.685Z,11.10
2022-11-28T23:06:35.331Z,10.20
2022-11-28T23:09:07.816Z,10.30
2022-11-28T23:11:37.943Z,10.30
2022-11-28T23:14:06.353Z,10.20
2022-11-28T23:16:39.870Z,11.10
2022-11-28T23:19:13.229Z,10.50
2022-11-28T23:21:43.628Z,10.40
2022-11-28T23:24:17.258Z,10.80
2022-11-28T23:26:44.900Z,10.90
2022-11-28T23:29:11.814Z,10.50
2022-11-28T23:31:41.856Z,10.20
2022-11-28T23:34:10.630Z,11.00
2022-11-28T23:36:42.945Z,11.00
2022-11-28T23:39:20.486Z,10.50
2022-11-28T23:41:48.299Z,10.60
2022-11-28T23:44:21.199Z,10.60
2022-11-28T23:46:49.213Z,10.60
2022-11-28T23:49:16.748Z,10.60
2022-11-28T23:51:44.289Z,10.60
2022-11-28T23:54:12.616Z,10.60
2022-11-28T23:56:42.042Z,10.90
2022-11-28T23:59:11.824Z,10.70
